createdAt,value
2023-06-13T00:00:12.071Z,97852.19
2023-06-13T00:02:39.871Z,97847.78
2023-06-13T00:05:22.563Z,97845.91
2023-06-13T00:07:50.991Z,97835.50
2023-06-13T00:10:18.612Z,97836.16
2023-06-13T00:12:50.740Z,97839.13
2023-06-13T00:15:19.483Z,97821.78
2023-06-13T00:17:49.744Z,97835.25
2023-06-13T00:20:17.610Z,97833.03
2023-06-13T00:22:46.509Z,97835.41
2023-06-13T00:25:14.139Z,97836.69
2023-06-13T00:27:41.661Z,97831.06
2023-06-13T00:30:09.778Z,97834.31
2023-06-13T00:32:37.330Z,97833.19
2023-06-13T00:35:05.948Z,97825.41
2023-06-13T00:37:35.801Z,97829.03
2023-06-13T00:40:03.972Z,97832.38
2023-06-13T00:42:33.292Z,97841.59
2023-06-13T00:45:29.314Z,97831.72
2023-06-13T00:48:06.363Z,97836.56
2023-06-13T00:50:44.591Z,97833.50
2023-06-13T00:53:19.681Z,97829.19
2023-06-13T00:55:48.842Z,97822.00
2023-06-13T00:58:18.170Z,97824.81
2023-06-13T01:00:46.891Z,97823.63
2023-06-13T01:03:17.736Z,97831.06
2023-06-13T01:05:48.168Z,97822.59
2023-06-13T01:08:28.437Z,97828.78
2023-06-13T01:11:22.395Z,97819.66
2023-06-13T01:14:15.771Z,97814.50
2023-06-13T01:17:04.635Z,97815.81
2023-06-13T01:19:44.675Z,97821.41
2023-06-13T01:22:24.765Z,97815.72
2023-06-13T01:25:38.635Z,97817.75
2023-06-13T01:28:09.314Z,97813.00
2023-06-13T01:30:37.273Z,97820.94
2023-06-13T01:33:06.112Z,97816.31
2023-06-13T01:35:33.899Z,97812.78
2023-06-13T01:38:01.856Z,97808.72
2023-06-13T01:40:29.363Z,97815.59
2023-06-13T01:42:56.878Z,97812.38
2023-06-13T01:45:25.888Z,97820.22
2023-06-13T01:48:30.667Z,97805.56
2023-06-13T01:51:25.933Z,97809.19
2023-06-13T01:54:00.225Z,97814.41
2023-06-13T01:56:33.053Z,97813.81
2023-06-13T01:59:09.024Z,97808.06
2023-06-13T02:01:40.374Z,97808.75
2023-06-13T02:04:08.224Z,97801.28
2023-06-13T02:06:36.643Z,97813.81
2023-06-13T02:09:05.100Z,97810.94
2023-06-13T02:11:32.724Z,97820.81
2023-06-13T02:14:00.188Z,97814.56
2023-06-13T02:16:31.160Z,97815.22
2023-06-13T02:19:01.318Z,97822.59
2023-06-13T02:21:31.374Z,97826.75
2023-06-13T02:24:00.060Z,97821.56
2023-06-13T02:26:30.459Z,97828.31
2023-06-13T02:28:59.381Z,97821.00
2023-06-13T02:31:27.817Z,97812.47
2023-06-13T02:33:55.475Z,97816.09
2023-06-13T02:36:22.961Z,97811.50
2023-06-13T02:38:50.478Z,97821.69
2023-06-13T02:41:17.942Z,97818.97
2023-06-13T02:43:45.533Z,97828.63
2023-06-13T02:46:13.072Z,97824.81
2023-06-13T02:48:41.520Z,97827.84
2023-06-13T02:51:08.996Z,97826.06
2023-06-13T02:53:36.650Z,97833.22
2023-06-13T02:56:04.483Z,97831.44
2023-06-13T02:58:31.994Z,97838.84
2023-06-13T03:00:59.482Z,97835.09
2023-06-13T03:03:27.103Z,97831.75
2023-06-13T03:05:57.587Z,97828.69
2023-06-13T03:08:26.410Z,97835.63
2023-06-13T03:10:54.532Z,97838.63
2023-06-13T03:13:22.189Z,97841.03
2023-06-13T03:15:49.685Z,97840.06
2023-06-13T03:18:17.568Z,97852.69
2023-06-13T03:20:47.514Z,97836.28
2023-06-13T03:23:16.826Z,97853.28
2023-06-13T03:25:47.042Z,97849.28
2023-06-13T03:28:14.652Z,97865.19
2023-06-13T03:30:42.170Z,97863.09
2023-06-13T03:33:11.294Z,97867.50
2023-06-13T03:35:39.617Z,97865.56
2023-06-13T03:38:07.427Z,97864.34
2023-06-13T03:40:35.021Z,97857.47
2023-06-13T03:43:02.644Z,97864.25
2023-06-13T03:45:30.383Z,97862.25
2023-06-13T03:47:57.979Z,97857.88
2023-06-13T03:50:25.553Z,97861.28
2023-06-13T03:52:53.118Z,97867.84
2023-06-13T04:16:53.666Z,97869.88
2023-06-13T04:19:21.904Z,97868.16
2023-06-13T04:21:49.809Z,97884.47
2023-06-13T04:24:17.868Z,97871.47
2023-06-13T04:26:48.987Z,97873.41
2023-06-13T04:29:20.239Z,97871.91
2023-06-13T04:31:48.065Z,97871.06
2023-06-13T04:34:15.954Z,97876.84
2023-06-13T04:36:45.599Z,97869.94
2023-06-13T04:39:13.644Z,97870.00
2023-06-13T04:41:44.905Z,97867.94
2023-06-13T04:44:14.689Z,97871.00
2023-06-13T04:46:42.610Z,97876.03
2023-06-13T04:49:10.602Z,97880.25
2023-06-13T04:51:39.161Z,97884.06
2023-06-13T04:54:10.554Z,97887.16
2023-06-13T04:56:41.541Z,97882.00
2023-06-13T04:59:09.843Z,97885.13
2023-06-13T05:01:39.076Z,97888.81
2023-06-13T05:04:07.217Z,97880.41
2023-06-13T05:06:39.192Z,97890.47
2023-06-13T05:09:09.793Z,97886.84
2023-06-13T05:11:37.268Z,97883.31
2023-06-13T05:14:04.818Z,97884.09
2023-06-13T05:16:33.192Z,97885.78
2023-06-13T05:19:01.564Z,97882.88
2023-06-13T05:21:30.634Z,97877.84
2023-06-13T05:23:59.880Z,97877.84
2023-06-13T05:26:29.285Z,97884.72
2023-06-13T05:28:58.817Z,97876.44
2023-06-13T05:31:26.428Z,97878.59
2023-06-13T05:33:53.929Z,97867.03
2023-06-13T05:36:21.424Z,97876.78
2023-06-13T05:38:48.929Z,97877.16
2023-06-13T05:41:16.389Z,97879.88
2023-06-13T05:43:43.881Z,97889.13
2023-06-13T05:46:11.605Z,97883.28
2023-06-13T05:48:39.099Z,97894.47
2023-06-13T05:51:06.717Z,97902.22
2023-06-13T05:53:34.205Z,97905.41
2023-06-13T05:56:01.928Z,97889.81
2023-06-13T05:58:29.629Z,97882.34
2023-06-13T06:00:59.093Z,97885.97
2023-06-13T06:03:26.978Z,97881.16
2023-06-13T06:05:54.496Z,97876.81
2023-06-13T06:08:22.115Z,97876.34
2023-06-13T06:10:50.189Z,97876.25
2023-06-13T06:13:17.706Z,97872.00
2023-06-13T06:15:45.183Z,97873.00
2023-06-13T06:18:13.275Z,97877.09
2023-06-13T06:20:40.867Z,97878.91
2023-06-13T06:23:08.390Z,97886.31
2023-06-13T06:25:36.445Z,97880.72
2023-06-13T06:28:04.026Z,97885.34
2023-06-13T06:30:31.905Z,97879.50
2023-06-13T06:32:59.616Z,97871.22
2023-06-13T06:35:27.201Z,97871.34
2023-06-13T06:37:54.706Z,97870.69
2023-06-13T06:40:23.136Z,97871.69
2023-06-13T06:42:50.614Z,97873.38
2023-06-13T06:45:18.058Z,97873.25
2023-06-13T06:47:45.800Z,97870.78
2023-06-13T06:50:13.511Z,97873.03
2023-06-13T06:52:41.335Z,97874.06
2023-06-13T06:55:08.912Z,97877.97
2023-06-13T06:57:36.856Z,97870.78
2023-06-13T07:00:05.679Z,97877.28
2023-06-13T07:02:33.749Z,97876.28
2023-06-13T07:05:01.694Z,97871.38
2023-06-13T07:07:29.337Z,97870.34
2023-06-13T07:09:57.079Z,97866.31
2023-06-13T07:12:24.612Z,97863.50
2023-06-13T07:14:52.116Z,97863.06
2023-06-13T07:17:19.729Z,97856.97
2023-06-13T07:19:47.230Z,97854.34
2023-06-13T07:22:14.697Z,97857.16
2023-06-13T07:24:42.649Z,97853.56
2023-06-13T07:27:10.152Z,97850.63
2023-06-13T07:29:37.925Z,97852.13
2023-06-13T07:32:07.006Z,97850.56
2023-06-13T07:34:59.242Z,97853.47
2023-06-13T07:37:22.627Z,97842.47
2023-06-13T07:39:51.095Z,97846.56
2023-06-13T07:42:18.571Z,97846.72
2023-06-13T07:44:46.201Z,97838.31
2023-06-13T07:47:13.822Z,97845.97
2023-06-13T07:49:41.356Z,97838.13
2023-06-13T07:52:09.799Z,97839.16
2023-06-13T07:54:37.996Z,97836.41
2023-06-13T07:57:19.310Z,97835.50
2023-06-13T07:59:56.663Z,97830.44
2023-06-13T08:02:27.837Z,97821.13
2023-06-13T08:04:56.294Z,97824.88
2023-06-13T08:07:24.215Z,97829.63
2023-06-13T08:09:51.830Z,97832.25
2023-06-13T08:12:19.316Z,97831.28
2023-06-13T08:14:46.807Z,97840.50
2023-06-13T08:17:14.311Z,97833.69
2023-06-13T08:19:41.778Z,97842.16
2023-06-13T08:22:09.382Z,97840.19
2023-06-13T08:24:36.899Z,97842.47
2023-06-13T08:27:05.047Z,97842.78
2023-06-13T08:29:32.570Z,97837.13
2023-06-13T08:32:00.889Z,97837.03
2023-06-13T08:34:28.548Z,97828.69
2023-06-13T08:36:56.220Z,97834.22
2023-06-13T08:39:24.020Z,97835.91
2023-06-13T08:41:52.103Z,97838.72
2023-06-13T08:44:20.090Z,97834.72
2023-06-13T08:46:47.794Z,97828.19
2023-06-13T08:49:15.497Z,97833.16
2023-06-13T08:51:46.681Z,97829.56
2023-06-13T08:54:16.375Z,97833.34
2023-06-13T08:56:46.775Z,97829.56
2023-06-13T08:59:23.951Z,97827.94
2023-06-13T09:01:52.097Z,97824.38
2023-06-13T09:04:20.171Z,97825.00
2023-06-13T09:06:49.655Z,97820.97
2023-06-13T09:09:17.823Z,97817.81
2023-06-13T09:11:50.957Z,97828.00
2023-06-13T09:14:21.059Z,97834.38
2023-06-13T09:16:55.578Z,97830.63
2023-06-13T09:19:23.357Z,97829.31
2023-06-13T09:21:51.632Z,97818.66
2023-06-13T09:24:19.544Z,97827.38
2023-06-13T09:26:47.268Z,97819.84
2023-06-13T09:31:45.197Z,97826.16
2023-06-13T09:34:18.814Z,97824.59
2023-06-13T09:36:46.916Z,97827.25
2023-06-13T09:39:14.499Z,97825.53
2023-06-13T09:41:42.807Z,97822.56
2023-06-13T09:44:11.224Z,97813.38
2023-06-13T09:46:38.861Z,97824.00
2023-06-13T09:49:07.570Z,97819.66
2023-06-13T09:51:35.100Z,97819.47
2023-06-13T09:54:03.849Z,97816.50
2023-06-13T09:56:31.384Z,97814.94
2023-06-13T09:58:58.873Z,97813.69
2023-06-13T10:01:27.030Z,97815.25
2023-06-13T10:03:54.534Z,97821.66
2023-06-13T10:06:22.028Z,97807.44
2023-06-13T10:08:49.584Z,97809.91
2023-06-13T10:11:28.829Z,97810.25
2023-06-13T10:14:13.283Z,97808.66
2023-06-13T10:17:03.607Z,97811.38
2023-06-13T10:19:42.667Z,97803.03
2023-06-13T10:22:12.165Z,97809.03
2023-06-13T10:24:41.339Z,97802.13
2023-06-13T10:27:11.462Z,97801.97
2023-06-13T10:30:24.959Z,97809.31
2023-06-13T10:33:19.528Z,97799.91
2023-06-13T10:37:03.882Z,97795.84
2023-06-13T10:40:31.892Z,97805.88
2023-06-13T10:43:39.679Z,97796.34
2023-06-13T10:46:10.131Z,97797.94
2023-06-13T10:48:50.910Z,97791.44
2023-06-13T10:51:30.309Z,97799.66
2023-06-13T10:54:03.680Z,97790.38
2023-06-13T10:56:40.553Z,97788.84
2023-06-13T10:59:31.487Z,97782.97
2023-06-13T11:01:58.987Z,97789.91
2023-06-13T11:04:30.878Z,97781.19
2023-06-13T11:07:27.696Z,97778.78
2023-06-13T11:10:17.673Z,97781.03
2023-06-13T11:12:46.417Z,97774.41
2023-06-13T11:15:29.843Z,97777.59
2023-06-13T11:18:23.433Z,97772.13
2023-06-13T11:20:59.779Z,97773.13
2023-06-13T11:23:55.117Z,97763.59
2023-06-13T11:26:23.021Z,97771.22
2023-06-13T11:28:54.418Z,97775.69
2023-06-13T11:31:22.812Z,97776.06
2023-06-13T11:33:55.190Z,97770.28
2023-06-13T11:36:29.483Z,97764.78
2023-06-13T11:39:10.260Z,97755.03
2023-06-13T11:41:38.728Z,97756.44
2023-06-13T11:44:07.015Z,97748.53
2023-06-13T11:46:35.471Z,97743.28
2023-06-13T11:49:03.100Z,97746.41
2023-06-13T11:51:32.182Z,97747.50
2023-06-13T11:54:02.639Z,97742.91
2023-06-13T11:56:35.924Z,97742.03
2023-06-13T11:59:26.817Z,97739.63
2023-06-13T12:01:56.379Z,97735.22
2023-06-13T12:04:27.357Z,97732.06
2023-06-13T12:06:55.551Z,97738.63
2023-06-13T12:09:23.451Z,97739.44
2023-06-13T12:11:53.215Z,97739.09
2023-06-13T12:14:22.031Z,97739.19
2023-06-13T12:16:55.256Z,97735.97
2023-06-13T12:19:24.547Z,97737.47
2023-06-13T12:22:00.374Z,97736.53
2023-06-13T12:24:28.643Z,97743.13
2023-06-13T12:26:56.576Z,97729.66
2023-06-13T12:29:29.460Z,97734.28
2023-06-13T12:32:04.874Z,97711.94
2023-06-13T12:34:34.406Z,97715.53
2023-06-13T12:37:06.371Z,97713.38
2023-06-13T12:39:35.631Z,97716.69
2023-06-13T12:42:11.727Z,97712.50
2023-06-13T12:44:39.231Z,97713.34
2023-06-13T12:47:08.471Z,97718.97
2023-06-13T12:49:41.295Z,97704.09
2023-06-13T12:52:17.324Z,97701.94
2023-06-13T12:54:45.264Z,97703.34
2023-06-13T12:57:17.170Z,97697.09
2023-06-13T12:59:52.651Z,97699.75
2023-06-13T13:02:28.418Z,97695.28
2023-06-13T13:05:01.995Z,97685.03
2023-06-13T13:07:31.313Z,97685.63
2023-06-13T13:10:00.783Z,97681.97
2023-06-13T13:12:28.719Z,97680.53
2023-06-13T13:14:56.181Z,97676.16
2023-06-13T13:17:24.019Z,97668.72
2023-06-13T13:19:54.571Z,97662.94
2023-06-13T13:22:22.938Z,97668.41
2023-06-13T13:24:50.686Z,97664.13
2023-06-13T13:27:18.241Z,97666.38
2023-06-13T13:29:47.070Z,97670.47
2023-06-13T13:32:14.589Z,97661.47
2023-06-13T13:34:42.244Z,97666.88
2023-06-13T13:37:09.781Z,97659.44
2023-06-13T13:39:37.280Z,97657.63
2023-06-13T13:42:14.204Z,97650.91
2023-06-13T13:44:53.543Z,97653.44
2023-06-13T13:47:21.178Z,97654.22
2023-06-13T13:49:48.654Z,97662.72
2023-06-13T13:52:16.207Z,97656.47
2023-06-13T13:54:43.982Z,97648.84
2023-06-13T13:57:11.827Z,97640.53
2023-06-13T13:59:39.483Z,97640.50
2023-06-13T14:02:07.317Z,97647.19
2023-06-13T14:04:35.084Z,97637.38
2023-06-13T14:07:02.659Z,97643.84
2023-06-13T14:09:30.133Z,97630.34
2023-06-13T14:11:57.642Z,97624.44
2023-06-13T14:14:25.720Z,97619.28
2023-06-13T14:16:53.761Z,97618.06
2023-06-13T14:19:21.836Z,97625.34
2023-06-13T14:21:49.897Z,97621.09
2023-06-13T14:24:17.840Z,97616.44
2023-06-13T14:26:45.436Z,97626.28
2023-06-13T14:29:12.892Z,97625.19
2023-06-13T14:31:40.471Z,97616.38
2023-06-13T14:34:08.050Z,97618.84
2023-06-13T14:36:35.645Z,97610.91
2023-06-13T14:39:06.673Z,97613.31
2023-06-13T14:41:34.281Z,97612.78
2023-06-13T14:44:01.933Z,97602.72
2023-06-13T14:46:29.881Z,97604.47
2023-06-13T14:48:57.350Z,97608.91
2023-06-13T14:51:24.833Z,97603.09
2023-06-13T14:53:52.368Z,97607.06
2023-06-13T14:56:19.836Z,97598.56
2023-06-13T14:58:47.334Z,97597.50
2023-06-13T15:01:15.108Z,97605.44
2023-06-13T15:03:47.356Z,97586.25
2023-06-13T15:06:15.021Z,97593.34
2023-06-13T15:08:42.501Z,97593.47
2023-06-13T15:11:11.695Z,97584.47
2023-06-13T15:13:39.830Z,97585.09
2023-06-13T15:16:10.382Z,97586.06
2023-06-13T15:18:38.124Z,97590.13
2023-06-13T15:21:06.689Z,97575.53
2023-06-13T15:23:34.463Z,97582.91
2023-06-13T15:26:02.065Z,97582.97
2023-06-13T15:28:30.174Z,97584.41
2023-06-13T15:30:58.090Z,97571.22
2023-06-13T15:33:31.562Z,97568.44
2023-06-13T15:36:00.282Z,97568.28
2023-06-13T15:38:27.802Z,97566.47
2023-06-13T15:40:55.539Z,97558.00
2023-06-13T15:43:23.026Z,97561.06
2023-06-13T15:45:50.838Z,97558.84
2023-06-13T15:48:18.315Z,97557.59
2023-06-13T15:50:46.084Z,97552.00
2023-06-13T15:53:13.973Z,97562.06
2023-06-13T15:55:43.241Z,97558.44
2023-06-13T15:58:12.206Z,97566.69
2023-06-13T16:00:41.791Z,97565.81
2023-06-13T16:03:10.327Z,97553.50
2023-06-13T16:05:38.190Z,97550.25
2023-06-13T16:08:06.145Z,97553.25
2023-06-13T16:10:33.657Z,97564.31
2023-06-13T16:13:01.245Z,97565.69
2023-06-13T16:15:29.877Z,97571.44
2023-06-13T16:17:57.518Z,97569.97
2023-06-13T16:20:25.105Z,97561.50
2023-06-13T16:22:52.744Z,97553.16
2023-06-13T16:25:20.466Z,97560.34
2023-06-13T16:27:48.085Z,97554.13
2023-06-13T16:30:15.684Z,97545.97
2023-06-13T16:32:44.149Z,97543.50
2023-06-13T16:35:11.849Z,97567.47
2023-06-13T16:37:40.863Z,97550.25
2023-06-13T16:40:09.236Z,97554.88
2023-06-13T16:42:37.749Z,97554.03
2023-06-13T16:45:06.454Z,97555.66
2023-06-13T16:47:34.142Z,97560.66
2023-06-13T16:50:01.726Z,97556.78
2023-06-13T16:52:32.422Z,97550.56
2023-06-13T16:55:00.402Z,97559.16
2023-06-13T16:57:27.908Z,97552.19
2023-06-13T16:59:55.589Z,97558.34
2023-06-13T17:02:23.326Z,97562.53
2023-06-13T17:04:50.813Z,97556.31
2023-06-13T17:07:18.268Z,97555.00
2023-06-13T17:09:45.836Z,97563.69
2023-06-13T17:12:14.213Z,97560.66
2023-06-13T17:14:42.052Z,97553.69
2023-06-13T17:17:09.667Z,97549.53
2023-06-13T17:19:37.384Z,97556.66
2023-06-13T17:22:05.227Z,97568.59
2023-06-13T17:24:33.651Z,97564.03
2023-06-13T17:27:02.460Z,97568.59
2023-06-13T17:29:30.646Z,97572.50
2023-06-13T17:31:58.951Z,97592.38
2023-06-13T17:34:27.198Z,97589.78
2023-06-13T17:36:55.957Z,97578.66
2023-06-13T17:39:23.720Z,97585.03
2023-06-13T17:41:52.240Z,97594.34
2023-06-13T17:44:19.742Z,97600.28
2023-06-13T17:46:47.303Z,97586.72
2023-06-13T17:49:14.883Z,97584.50
2023-06-13T17:51:42.414Z,97583.69
2023-06-13T17:54:10.875Z,97593.63
2023-06-13T17:56:39.265Z,97591.31
2023-06-13T17:59:07.587Z,97590.28
2023-06-13T18:01:35.681Z,97593.06
2023-06-13T18:04:03.401Z,97585.44
2023-06-13T18:06:30.916Z,97596.00
2023-06-13T18:08:58.816Z,97587.72
2023-06-13T18:11:26.678Z,97597.88
2023-06-13T18:13:56.612Z,97601.25
2023-06-13T18:16:24.273Z,97588.44
2023-06-13T18:18:51.819Z,97590.72
2023-06-13T18:21:19.286Z,97592.47
2023-06-13T18:23:46.911Z,97592.16
2023-06-13T18:26:14.528Z,97603.09
2023-06-13T18:28:42.161Z,97602.09
2023-06-13T18:31:09.944Z,97604.78
2023-06-13T18:33:38.388Z,97607.41
2023-06-13T18:36:06.005Z,97605.75
2023-06-13T18:38:35.548Z,97599.53
2023-06-13T18:41:03.173Z,97600.69
2023-06-13T18:43:30.791Z,97608.47
2023-06-13T18:45:58.390Z,97600.56
2023-06-13T18:48:26.385Z,97599.34
2023-06-13T18:50:53.996Z,97606.13
2023-06-13T18:53:21.657Z,97604.94
2023-06-13T18:55:49.733Z,97607.53
2023-06-13T18:58:17.416Z,97612.66
2023-06-13T19:00:46.224Z,97623.50
2023-06-13T19:03:14.815Z,97629.63
2023-06-13T19:05:42.958Z,97628.25
2023-06-13T19:08:10.586Z,97635.13
2023-06-13T19:10:38.194Z,97629.13
2023-06-13T19:13:05.819Z,97640.38
2023-06-13T19:15:33.727Z,97639.09
2023-06-13T19:18:01.720Z,97655.56
2023-06-13T19:20:29.409Z,97657.25
2023-06-13T19:22:56.980Z,97652.06
2023-06-13T19:25:26.611Z,97653.91
2023-06-13T19:28:10.013Z,97669.13
2023-06-13T19:30:44.669Z,97661.78
2023-06-13T19:33:12.276Z,97666.75
2023-06-13T19:35:41.522Z,97662.69
2023-06-13T19:38:09.118Z,97677.56
2023-06-13T19:40:36.831Z,97685.44
2023-06-13T19:43:04.378Z,97680.53
2023-06-13T19:45:32.455Z,97686.72
2023-06-13T19:48:09.569Z,97699.50
2023-06-13T19:50:37.333Z,97700.25
2023-06-13T19:53:06.358Z,97703.25
2023-06-13T19:55:34.892Z,97704.78
2023-06-13T19:58:03.190Z,97709.88
2023-06-13T20:00:31.583Z,97712.47
2023-06-13T20:02:59.449Z,97725.28
2023-06-13T20:05:27.096Z,97720.94
2023-06-13T20:07:54.582Z,97722.00
2023-06-13T20:10:22.183Z,97732.38
2023-06-13T20:12:49.778Z,97738.16
2023-06-13T20:15:17.720Z,97735.88
2023-06-13T20:17:47.232Z,97748.00
2023-06-13T20:20:15.096Z,97750.78
2023-06-13T20:22:45.633Z,97757.16
2023-06-13T20:25:13.843Z,97759.44
2023-06-13T20:27:41.970Z,97760.66
2023-06-13T20:30:10.992Z,97766.06
2023-06-13T20:32:38.538Z,97759.44
2023-06-13T20:35:08.182Z,97760.63
2023-06-13T20:37:36.064Z,97765.78
2023-06-13T20:40:05.605Z,97772.69
2023-06-13T20:42:34.564Z,97769.22
2023-06-13T20:45:09.537Z,97770.31
2023-06-13T20:47:39.259Z,97770.53
2023-06-13T20:50:12.957Z,97777.81
2023-06-13T20:52:40.520Z,97779.59
2023-06-13T20:55:09.305Z,97781.44
2023-06-13T20:57:38.267Z,97790.53
2023-06-13T21:00:23.211Z,97779.91
2023-06-13T21:02:54.394Z,97788.03
2023-06-13T21:05:27.118Z,97794.94
2023-06-13T21:07:59.430Z,97794.47
2023-06-13T21:10:29.744Z,97787.72
2023-06-13T21:12:57.859Z,97784.59
2023-06-13T21:15:27.009Z,97784.16
2023-06-13T21:17:55.821Z,97783.81
2023-06-13T21:20:26.230Z,97781.31
2023-06-13T21:22:55.210Z,97789.72
2023-06-13T21:25:24.746Z,97783.00
2023-06-13T21:27:53.160Z,97793.94
2023-06-13T21:30:21.276Z,97795.69
2023-06-13T21:32:49.574Z,97794.25
2023-06-13T21:35:20.278Z,97803.00
2023-06-13T21:37:47.843Z,97796.13
2023-06-13T21:40:15.832Z,97800.16
2023-06-13T21:42:43.846Z,97803.00
2023-06-13T21:45:15.028Z,97801.28
2023-06-13T21:47:44.980Z,97798.41
2023-06-13T21:50:12.746Z,97804.41
2023-06-13T21:52:41.352Z,97802.78
2023-06-13T21:55:12.540Z,97802.94
2023-06-13T21:57:40.151Z,97804.84
2023-06-13T22:00:17.450Z,97803.44
2023-06-13T22:02:46.901Z,97812.91
2023-06-13T22:05:15.930Z,97811.38
2023-06-13T22:07:45.456Z,97806.41
2023-06-13T22:10:14.462Z,97812.56
2023-06-13T22:12:44.089Z,97813.97
2023-06-13T22:15:11.862Z,97815.31
2023-06-13T22:17:40.166Z,97816.44
2023-06-13T22:20:19.705Z,97817.16
2023-06-13T22:22:48.879Z,97820.94
2023-06-13T22:25:16.498Z,97821.53
2023-06-13T22:27:44.017Z,97822.22
2023-06-13T22:30:12.899Z,97827.81
2023-06-13T22:32:40.969Z,97840.59
2023-06-13T22:35:12.079Z,97826.41
2023-06-13T22:37:40.069Z,97825.50
2023-06-13T22:40:10.961Z,97828.03
2023-06-13T22:42:39.014Z,97830.56
2023-06-13T22:45:08.137Z,97829.50
2023-06-13T22:47:38.307Z,97828.84
2023-06-13T22:50:07.836Z,97827.03
2023-06-13T22:52:38.278Z,97828.22
2023-06-13T22:55:06.525Z,97822.75
2023-06-13T22:57:34.084Z,97826.63
2023-06-13T23:00:01.693Z,97825.22
2023-06-13T23:02:30.297Z,97833.06
2023-06-13T23:04:57.844Z,97823.09
2023-06-13T23:07:25.333Z,97828.09
2023-06-13T23:09:52.832Z,97823.09
2023-06-13T23:12:20.498Z,97825.31
2023-06-13T23:14:48.231Z,97825.91
2023-06-13T23:17:15.965Z,97822.88
2023-06-13T23:19:54.652Z,97820.63
2023-06-13T23:22:22.739Z,97821.81
2023-06-13T23:24:50.478Z,97820.03
2023-06-13T23:27:18.933Z,97815.13
2023-06-13T23:29:48.457Z,97809.97
2023-06-13T23:32:17.523Z,97824.03
2023-06-13T23:34:46.733Z,97816.44
2023-06-13T23:37:21.760Z,97824.13
2023-06-13T23:39:52.568Z,97830.63
2023-06-13T23:42:20.452Z,97831.72
2023-06-13T23:44:48.369Z,97834.25
2023-06-13T23:47:15.996Z,97827.63
2023-06-13T23:49:43.683Z,97831.72
2023-06-13T23:52:11.249Z,97840.28
2023-06-13T23:54:38.942Z,97833.78
2023-06-13T23:57:06.719Z,97831.31
2023-06-13T23:59:35.145Z,97838.72
